SM2 weather

CLOSED Miguasha Airport
Miguasha, Quebec, Canada

Public forecast

Using degrees Celsius for public forecast. Weather courtesy of forecast.io.

Closest aviation weather report (METAR) to Miguasha Airport

Closest report is Bathurst Airport, 34.6 nm (64.1 km) SE. Retrieved 2020/07/07 12:00 UTC (35 minutes ago):

CZBF 071200Z AUTO 11003KT 080V160 9SM OVC015 16/13 A3020 RMK SLP228

Closest aviation forecast (TAF) to Miguasha Airport

Closest forecast is Bathurst Airport, 34.6 nm (64.1 km) SE. Retrieved 2020/07/07 09:42 UTC (3 hours ago):

TAF CZBF 070838Z 0709/0721 VRB03KT P6SM OVC012 TEMPO 0709/0712 2SM BR OVC007 FM071200 VRB03KT P6SM BKN012 TEMPO 0712/0716 SCT012 BKN025 FM071600 05008KT P6SM BKN030 BKN240 BECMG 0719/0721 18006KT RMK FCST BASED ON AUTO OBS NXT FCST BY 071400Z